createdAt,value
2022-08-05T00:00:26.217Z,2.87
2022-08-05T00:02:54.822Z,7.30
2022-08-05T00:06:02.039Z,7.30
2022-08-05T00:08:34.181Z,7.07
2022-08-05T00:11:02.181Z,4.23
2022-08-05T00:13:38.069Z,5.50
2022-08-05T00:16:12.358Z,5.67
2022-08-05T00:18:44.241Z,2.37
2022-08-05T00:21:14.409Z,5.33
2022-08-05T00:23:46.773Z,2.93
2022-08-05T00:26:22.583Z,5.70
2022-08-05T00:28:52.637Z,9.90
2022-08-05T00:31:54.085Z,4.17
2022-08-05T00:34:54.815Z,4.30
2022-08-05T00:37:13.204Z,4.10
2022-08-05T00:39:57.280Z,6.23
2022-08-05T00:42:35.470Z,5.57
2022-08-05T00:45:11.679Z,4.53
2022-08-05T00:47:56.886Z,8.60
2022-08-05T00:50:30.643Z,7.00
2022-08-05T00:52:59.081Z,6.47
2022-08-05T00:55:33.942Z,6.13
2022-08-05T00:58:11.120Z,2.50
2022-08-05T01:00:42.438Z,4.43
2022-08-05T01:03:22.355Z,5.37
2022-08-05T01:05:54.786Z,5.73
2022-08-05T01:08:41.246Z,4.23
2022-08-05T01:11:22.494Z,7.73
2022-08-05T01:14:03.870Z,7.23
2022-08-05T01:16:48.467Z,5.30
2022-08-05T01:19:36.657Z,7.20
2022-08-05T01:22:57.356Z,8.73
2022-08-05T01:25:40.407Z,4.77
2022-08-05T01:28:19.060Z,12.77
2022-08-05T01:30:55.306Z,5.87
2022-08-05T01:33:35.649Z,8.37
2022-08-05T01:36:12.689Z,7.80
2022-08-05T01:38:42.740Z,5.43
2022-08-05T01:41:13.880Z,2.10
2022-08-05T01:43:45.184Z,3.53
2022-08-05T01:46:42.019Z,8.60
2022-08-05T01:49:22.906Z,8.17
2022-08-05T01:51:58.288Z,7.70
2022-08-05T01:54:32.628Z,2.77
2022-08-05T01:58:09.430Z,6.33
2022-08-05T01:59:53.499Z,5.33
2022-08-05T02:02:26.149Z,3.43
2022-08-05T02:05:03.060Z,4.37
2022-08-05T02:07:33.751Z,7.47
2022-08-05T02:10:04.830Z,4.97
2022-08-05T02:12:44.073Z,4.20
2022-08-05T02:15:33.179Z,6.77
2022-08-05T02:18:31.819Z,3.83
2022-08-05T02:21:02.379Z,3.23
2022-08-05T02:23:35.690Z,4.93
2022-08-05T02:26:08.556Z,5.40
2022-08-05T02:28:45.799Z,2.43
2022-08-05T02:31:21.606Z,4.83
2022-08-05T02:33:57.224Z,4.33
2022-08-05T02:36:31.571Z,5.53
2022-08-05T02:39:02.792Z,6.83
2022-08-05T02:41:36.392Z,5.70
2022-08-05T02:44:25.257Z,8.93
2022-08-05T02:47:00.239Z,4.17
2022-08-05T02:49:35.644Z,4.00
2022-08-05T02:52:10.016Z,9.30
2022-08-05T02:54:42.294Z,3.53
2022-08-05T02:58:11.235Z,4.03
2022-08-05T03:00:03.261Z,6.37
2022-08-05T03:02:39.961Z,7.10
2022-08-05T03:05:10.861Z,2.70
2022-08-05T03:08:06.779Z,5.47
2022-08-05T03:10:30.769Z,6.27
2022-08-05T03:15:26.862Z,8.30
2022-08-05T03:17:59.325Z,6.20
2022-08-05T03:20:28.048Z,3.17
2022-08-05T03:22:58.053Z,6.50
2022-08-05T03:26:03.665Z,9.87
2022-08-05T03:28:18.731Z,7.50
2022-08-05T03:30:49.503Z,10.23
2022-08-05T03:33:21.865Z,4.00
2022-08-05T03:35:51.630Z,7.03
2022-08-05T03:38:32.964Z,4.20
2022-08-05T03:41:04.061Z,8.33
2022-08-05T03:44:09.760Z,4.83
2022-08-05T03:46:26.835Z,4.43
2022-08-05T03:49:01.830Z,4.07
2022-08-05T03:52:39.130Z,5.77
2022-08-05T03:55:50.896Z,11.27
2022-08-05T03:57:42.274Z,6.13
2022-08-05T04:00:15.858Z,3.90
2022-08-05T04:02:58.789Z,4.13
2022-08-05T04:05:34.460Z,7.37
2022-08-05T04:08:30.180Z,4.43
2022-08-05T04:10:54.519Z,5.17
2022-08-05T04:13:23.804Z,5.80
2022-08-05T04:16:03.084Z,2.17
2022-08-05T04:18:34.500Z,7.53
2022-08-05T04:21:05.672Z,7.83
2022-08-05T04:24:05.200Z,15.20
2022-08-05T04:26:25.479Z,7.17
2022-08-05T04:29:01.153Z,5.17
2022-08-05T04:31:38.485Z,3.90
2022-08-05T04:34:31.424Z,9.97
2022-08-05T04:36:57.705Z,4.60
2022-08-05T04:39:27.395Z,6.70
2022-08-05T04:41:56.582Z,8.23
2022-08-05T04:44:29.954Z,2.87
2022-08-05T04:46:59.350Z,6.60
2022-08-05T04:49:39.134Z,1.90
2022-08-05T04:52:18.659Z,6.37
2022-08-05T04:54:47.240Z,5.23
2022-08-05T04:57:18.235Z,3.20
2022-08-05T04:59:48.161Z,5.47
2022-08-05T05:02:36.795Z,4.70
2022-08-05T05:05:16.737Z,6.70
2022-08-05T05:08:00.836Z,6.23
2022-08-05T05:10:30.939Z,8.63
2022-08-05T05:13:03.960Z,3.77
2022-08-05T05:15:57.395Z,6.00
2022-08-05T05:18:31.610Z,6.80
2022-08-05T05:21:03.110Z,4.90
2022-08-05T05:24:01.613Z,2.03
2022-08-05T05:26:28.309Z,4.03
2022-08-05T05:29:02.747Z,4.37
2022-08-05T05:31:43.167Z,4.73
2022-08-05T05:34:15.496Z,3.83
2022-08-05T05:36:45.609Z,3.23
2022-08-05T05:39:19.319Z,2.60
2022-08-05T05:41:54.493Z,3.93
2022-08-05T05:44:37.579Z,6.30
2022-08-05T05:47:21.382Z,2.43
2022-08-05T05:49:56.462Z,5.73
2022-08-05T05:52:28.425Z,3.53
2022-08-05T05:55:01.957Z,3.63
2022-08-05T05:57:52.348Z,2.90
2022-08-05T06:00:31.459Z,2.93
2022-08-05T06:03:02.151Z,2.93
2022-08-05T06:05:31.889Z,5.83
2022-08-05T06:08:02.275Z,2.47
2022-08-05T06:10:36.733Z,4.87
2022-08-05T06:13:12.804Z,2.53
2022-08-05T06:16:28.431Z,4.93
2022-08-05T06:18:31.450Z,3.00
2022-08-05T06:21:01.257Z,2.60
2022-08-05T06:23:32.015Z,1.40
2022-08-05T06:26:21.242Z,5.27
2022-08-05T06:28:52.446Z,4.10
2022-08-05T06:31:21.989Z,5.77
2022-08-05T06:34:07.320Z,1.93
2022-08-05T06:36:57.150Z,2.80
2022-08-05T06:39:27.191Z,4.97
2022-08-05T06:42:03.929Z,2.70
2022-08-05T06:44:33.179Z,1.77
2022-08-05T06:47:02.322Z,1.07
2022-08-05T06:50:02.068Z,1.93
2022-08-05T06:52:37.051Z,4.33
2022-08-05T06:55:07.369Z,2.37
2022-08-05T06:58:02.746Z,2.40
2022-08-05T07:00:26.068Z,2.50
2022-08-05T07:02:54.596Z,2.13
2022-08-05T07:05:36.939Z,2.43
2022-08-05T07:08:10.755Z,1.63
2022-08-05T07:10:52.337Z,3.07
2022-08-05T07:13:59.228Z,1.27
2022-08-05T07:18:00.691Z,2.63
2022-08-05T07:22:28.140Z,1.27
2022-08-05T07:25:23.486Z,0.67
2022-08-05T07:27:58.741Z,1.73
2022-08-05T07:30:32.011Z,1.53
2022-08-05T07:33:04.965Z,6.60
2022-08-05T07:35:55.918Z,1.23
2022-08-05T07:38:34.489Z,4.33
2022-08-05T07:42:07.173Z,2.37
2022-08-05T07:43:56.653Z,2.50
2022-08-05T07:46:28.317Z,0.70
2022-08-05T07:49:02.410Z,1.70
2022-08-05T07:51:40.391Z,1.40
2022-08-05T07:54:10.606Z,2.30
2022-08-05T07:57:02.103Z,1.97
2022-08-05T07:59:38.133Z,0.83
2022-08-05T08:02:16.650Z,2.67
2022-08-05T08:04:48.202Z,2.57
2022-08-05T08:07:22.167Z,1.43
2022-08-05T08:09:53.069Z,1.43
2022-08-05T08:12:33.323Z,0.93
2022-08-05T08:15:13.879Z,0.40
2022-08-05T08:17:52.796Z,4.33
2022-08-05T08:21:00.665Z,1.70
2022-08-05T08:24:03.642Z,0.97
2022-08-05T08:26:02.801Z,5.43
2022-08-05T08:28:36.468Z,1.60
2022-08-05T08:31:17.363Z,0.80
2022-08-05T08:33:51.613Z,2.10
2022-08-05T08:36:38.235Z,1.47
2022-08-05T08:39:14.888Z,9.07
2022-08-05T08:41:51.764Z,0.80
2022-08-05T08:45:21.320Z,0.47
2022-08-05T08:48:05.975Z,1.33
2022-08-05T08:50:33.073Z,3.70
2022-08-05T08:53:07.937Z,0.43
2022-08-05T08:56:02.976Z,0.30
2022-08-05T08:58:43.981Z,0.67
2022-08-05T09:01:20.727Z,1.50
2022-08-05T09:03:54.529Z,3.97
2022-08-05T09:06:29.921Z,1.20
2022-08-05T09:09:01.501Z,1.40
2022-08-05T09:11:53.459Z,0.40
2022-08-05T09:14:58.376Z,4.53
2022-08-05T09:17:41.144Z,0.30
2022-08-05T09:20:02.759Z,0.60
2022-08-05T09:23:07.861Z,0.83
2022-08-05T09:25:59.803Z,0.30
2022-08-05T09:28:32.154Z,1.40
2022-08-05T09:31:23.307Z,2.50
2022-08-05T09:33:56.667Z,0.83
2022-08-05T09:36:27.745Z,5.33
2022-08-05T09:39:18.528Z,1.87
2022-08-05T09:42:03.658Z,1.90
2022-08-05T09:44:37.733Z,1.33
2022-08-05T09:47:12.673Z,1.73
2022-08-05T09:50:00.559Z,4.47
2022-08-05T09:52:33.673Z,3.27
2022-08-05T09:55:58.101Z,0.77
2022-08-05T09:57:58.848Z,0.63
2022-08-05T10:00:30.629Z,1.30
2022-08-05T10:02:59.729Z,1.43
2022-08-05T10:05:32.757Z,1.80
2022-08-05T10:08:35.379Z,2.60
2022-08-05T10:10:55.415Z,2.53
2022-08-05T10:13:45.766Z,1.13
2022-08-05T10:16:37.673Z,0.40
2022-08-05T10:19:14.145Z,1.03
2022-08-05T10:21:45.667Z,1.13
2022-08-05T10:24:15.613Z,3.40
2022-08-05T10:26:51.406Z,0.83
2022-08-05T10:30:06.452Z,3.97
2022-08-05T10:32:54.812Z,0.50
2022-08-05T10:35:06.872Z,0.60
2022-08-05T10:37:40.094Z,0.20
2022-08-05T10:40:28.290Z,0.73
2022-08-05T10:43:05.992Z,1.17
2022-08-05T10:45:42.308Z,2.53
2022-08-05T10:48:39.499Z,2.43
2022-08-05T10:51:29.760Z,0.30
2022-08-05T10:54:00.954Z,1.97
2022-08-05T10:56:46.495Z,0.20
2022-08-05T11:00:03.364Z,0.83
2022-08-05T11:02:37.705Z,0.20
2022-08-05T11:05:11.167Z,0.40
2022-08-05T11:08:02.405Z,1.60
2022-08-05T11:10:37.310Z,0.83
2022-08-05T11:13:13.791Z,0.80
2022-08-05T11:16:01.252Z,2.23
2022-08-05T11:18:34.261Z,0.70
2022-08-05T11:21:11.270Z,1.50
2022-08-05T11:24:02.996Z,0.33
2022-08-05T11:26:33.769Z,0.63
2022-08-05T11:29:13.822Z,0.83
2022-08-05T11:31:57.202Z,2.30
2022-08-05T11:34:51.846Z,0.40
2022-08-05T11:38:30.794Z,2.23
2022-08-05T11:41:34.679Z,2.13
2022-08-05T11:44:04.530Z,0.10
2022-08-05T11:46:38.017Z,1.10
2022-08-05T11:49:28.199Z,0.93
2022-08-05T11:51:57.756Z,3.07
2022-08-05T11:54:33.143Z,1.77
2022-08-05T11:57:08.131Z,1.43
2022-08-05T11:59:56.784Z,3.03
2022-08-05T12:02:33.025Z,0.90
2022-08-05T12:05:18.385Z,0.67
2022-08-05T12:08:10.542Z,0.47
2022-08-05T12:10:45.168Z,0.37
2022-08-05T12:13:27.971Z,0.40
2022-08-05T12:16:14.840Z,5.10
2022-08-05T12:18:49.100Z,1.60
2022-08-05T12:21:26.987Z,1.57
2022-08-05T12:24:04.501Z,1.53
2022-08-05T12:26:36.273Z,0.90
2022-08-05T12:29:09.568Z,6.32
2022-08-05T12:31:46.160Z,2.35
2022-08-05T12:34:21.195Z,1.55
2022-08-05T12:36:53.362Z,0.38
2022-08-05T12:39:23.691Z,2.13
2022-08-05T12:42:00.171Z,1.83
2022-08-05T12:44:33.690Z,4.25
2022-08-05T12:47:03.633Z,0.43
2022-08-05T12:50:03.353Z,0.20
2022-08-05T12:52:39.014Z,0.50
2022-08-05T12:55:26.626Z,1.90
2022-08-05T12:58:49.054Z,3.97
2022-08-05T13:02:01.311Z,0.80
2022-08-05T13:03:39.010Z,0.50
2022-08-05T13:06:15.945Z,3.63
2022-08-05T13:08:51.942Z,0.83
2022-08-05T13:11:35.085Z,3.00
2022-08-05T13:14:15.792Z,1.17
2022-08-05T13:16:56.650Z,0.80
2022-08-05T13:19:27.103Z,1.00
2022-08-05T13:22:29.575Z,7.47
2022-08-05T13:25:05.864Z,1.67
2022-08-05T13:27:39.183Z,3.20
2022-08-05T13:30:33.513Z,0.50
2022-08-05T13:33:00.933Z,3.73
2022-08-05T13:35:47.593Z,2.23
2022-08-05T13:38:31.009Z,3.45
2022-08-05T13:41:04.057Z,1.50
2022-08-05T13:43:43.963Z,1.07
2022-08-05T13:46:37.768Z,2.40
2022-08-05T13:49:09.869Z,0.73
2022-08-05T13:51:40.818Z,1.83
2022-08-05T13:54:11.991Z,2.13
2022-08-05T13:56:45.049Z,1.23
2022-08-05T13:59:23.806Z,0.40
2022-08-05T14:01:57.511Z,1.73
2022-08-05T14:04:49.752Z,5.90
2022-08-05T14:07:26.056Z,4.90
2022-08-05T14:10:11.917Z,6.35
2022-08-05T14:12:48.465Z,1.45
2022-08-05T14:16:04.519Z,0.68
2022-08-05T14:18:17.563Z,0.95
2022-08-05T14:20:48.215Z,7.00
2022-08-05T14:23:23.432Z,0.85
2022-08-05T14:25:54.589Z,1.42
2022-08-05T14:28:28.791Z,6.00
2022-08-05T14:30:57.560Z,1.08
2022-08-05T14:33:26.037Z,2.70
2022-08-05T14:35:54.979Z,1.70
2022-08-05T14:38:32.937Z,1.60
2022-08-05T14:41:06.673Z,1.17
2022-08-05T14:44:01.853Z,2.75
2022-08-05T14:46:29.787Z,1.17
2022-08-05T14:49:06.510Z,0.47
2022-08-05T14:51:38.495Z,4.18
2022-08-05T14:54:29.834Z,1.07
2022-08-05T14:57:05.187Z,0.70
2022-08-05T14:59:39.596Z,1.57
2022-08-05T15:02:15.143Z,0.73
2022-08-05T15:04:47.895Z,1.33
2022-08-05T15:08:08.602Z,6.63
2022-08-05T15:10:09.575Z,1.20
2022-08-05T15:12:58.017Z,1.27
2022-08-05T15:15:54.086Z,3.50
2022-08-05T15:18:17.495Z,4.57
2022-08-05T15:20:46.151Z,2.73
2022-08-05T15:23:15.790Z,2.10
2022-08-05T15:25:52.112Z,2.83
2022-08-05T15:28:24.434Z,2.63
2022-08-05T15:30:57.937Z,1.90
2022-08-05T15:34:18.634Z,2.33
2022-08-05T15:36:17.617Z,2.43
2022-08-05T15:40:59.733Z,1.47
2022-08-05T15:41:58.234Z,3.73
2022-08-05T15:44:32.341Z,0.30
2022-08-05T15:47:03.692Z,2.20
2022-08-05T15:49:53.726Z,1.30
2022-08-05T15:52:52.024Z,1.05
2022-08-05T15:55:16.094Z,2.60
2022-08-05T15:57:45.900Z,0.82
2022-08-05T16:00:26.311Z,2.60
2022-08-05T16:03:08.615Z,1.75
2022-08-05T16:05:39.003Z,1.85
2022-08-05T16:08:11.023Z,2.40
2022-08-05T16:10:44.524Z,1.50
2022-08-05T16:13:23.233Z,0.88
2022-08-05T16:15:52.736Z,2.78
2022-08-05T16:18:29.031Z,1.02
2022-08-05T16:20:58.570Z,0.80
2022-08-05T16:23:33.091Z,2.38
2022-08-05T16:26:18.344Z,2.50
2022-08-05T16:28:49.444Z,1.80
2022-08-05T16:31:20.529Z,1.55
2022-08-05T16:33:52.104Z,3.03
2022-08-05T16:36:23.865Z,0.93
2022-08-05T16:38:55.045Z,1.90
2022-08-05T16:42:14.867Z,0.80
2022-08-05T16:44:14.189Z,2.60
2022-08-05T16:46:55.792Z,1.55
2022-08-05T16:49:26.849Z,1.40
2022-08-05T16:51:57.648Z,3.42
2022-08-05T16:54:32.894Z,2.33
2022-08-05T16:57:01.609Z,4.38
2022-08-05T16:59:30.941Z,1.33
2022-08-05T17:01:59.540Z,3.40
2022-08-05T17:04:30.905Z,1.83
2022-08-05T17:07:01.140Z,3.13
2022-08-05T17:09:38.759Z,2.97
2022-08-05T17:12:22.494Z,1.47
2022-08-05T17:15:09.260Z,2.10
2022-08-05T17:17:42.731Z,2.30
2022-08-05T17:20:14.800Z,2.77
2022-08-05T17:22:45.041Z,3.60
2022-08-05T17:25:33.461Z,2.47
2022-08-05T17:28:02.209Z,1.80
2022-08-05T17:30:30.902Z,1.90
2022-08-05T17:32:59.657Z,3.63
2022-08-05T17:35:32.629Z,3.07
2022-08-05T17:38:18.457Z,4.43
2022-08-05T17:40:47.637Z,2.47
2022-08-05T17:43:17.991Z,1.67
2022-08-05T17:46:06.644Z,4.33
2022-08-05T17:48:38.744Z,2.87
2022-08-05T17:51:09.239Z,1.73
2022-08-05T17:53:37.969Z,6.77
2022-08-05T17:56:09.347Z,4.40
2022-08-05T17:58:39.491Z,1.07
2022-08-05T18:01:09.787Z,5.03
2022-08-05T18:03:58.626Z,3.73
2022-08-05T18:06:29.346Z,4.07
2022-08-05T18:08:59.649Z,5.90
2022-08-05T18:11:33.588Z,2.97
2022-08-05T18:14:04.187Z,3.00
2022-08-05T18:16:33.689Z,3.37
2022-08-05T18:19:02.332Z,3.77
2022-08-05T18:22:08.736Z,4.43
2022-08-05T18:24:20.872Z,5.23
2022-08-05T18:26:49.502Z,3.33
2022-08-05T18:29:18.309Z,3.93
2022-08-05T18:32:07.435Z,5.90
2022-08-05T18:34:42.796Z,3.57
2022-08-05T18:37:16.953Z,3.37
2022-08-05T18:40:34.233Z,6.77
2022-08-05T18:42:49.938Z,1.17
2022-08-05T18:45:20.780Z,5.00
2022-08-05T18:47:53.242Z,3.03
2022-08-05T18:50:46.453Z,4.40
2022-08-05T18:53:24.538Z,3.13
2022-08-05T18:55:53.500Z,3.27
2022-08-05T18:58:27.280Z,5.03
2022-08-05T19:00:57.603Z,1.97
2022-08-05T19:03:52.714Z,1.00
2022-08-05T19:06:21.606Z,2.27
2022-08-05T19:08:52.241Z,1.73
2022-08-05T19:11:21.935Z,5.90
2022-08-05T19:14:00.938Z,3.33
2022-08-05T19:16:36.863Z,1.43
2022-08-05T19:19:15.905Z,3.33
2022-08-05T19:21:51.457Z,4.77
2022-08-05T19:24:34.357Z,2.57
2022-08-05T19:27:04.381Z,7.80
2022-08-05T19:29:36.436Z,7.50
2022-08-05T19:32:11.414Z,21.70
2022-08-05T19:34:40.599Z,7.43
2022-08-05T19:37:11.220Z,4.63
2022-08-05T19:39:45.500Z,1.60
2022-08-05T19:42:36.079Z,29.40
2022-08-05T19:45:06.533Z,82.20
2022-08-05T19:47:37.428Z,134.87
2022-08-05T19:50:10.672Z,52.13
2022-08-05T19:52:40.992Z,9.80
2022-08-05T19:56:15.093Z,2.10
2022-08-05T19:58:14.643Z,4.00
2022-08-05T20:00:48.922Z,5.17
2022-08-05T20:03:17.379Z,4.10
2022-08-05T20:05:51.253Z,1.77
2022-08-05T20:08:20.874Z,7.63
2022-08-05T20:10:55.130Z,4.53
2022-08-05T20:13:30.007Z,7.87
2022-08-05T20:16:12.190Z,1.67
2022-08-05T20:18:41.320Z,5.77
2022-08-05T20:21:10.092Z,6.47
2022-08-05T20:23:51.685Z,1.20
2022-08-05T20:26:25.761Z,4.43
2022-08-05T20:28:56.233Z,4.97
2022-08-05T20:31:28.748Z,3.70
2022-08-05T20:34:06.335Z,4.73
2022-08-05T20:36:39.059Z,2.53
2022-08-05T20:39:12.991Z,4.17
2022-08-05T20:41:45.263Z,4.60
2022-08-05T20:44:17.171Z,3.37
2022-08-05T20:46:48.259Z,5.90
2022-08-05T20:49:24.224Z,9.83
2022-08-05T20:51:55.339Z,5.13
2022-08-05T20:54:55.573Z,6.17
2022-08-05T20:57:41.835Z,4.80
2022-08-05T21:00:20.168Z,1.43
2022-08-05T21:03:01.228Z,2.93
2022-08-05T21:05:47.741Z,4.67
2022-08-05T21:08:18.897Z,1.90
2022-08-05T21:10:49.084Z,5.77
2022-08-05T21:13:26.606Z,3.70
2022-08-05T21:16:08.233Z,3.57
2022-08-05T21:18:36.679Z,2.43
2022-08-05T21:21:05.837Z,4.57
2022-08-05T21:23:37.066Z,2.70
2022-08-05T21:26:12.208Z,7.60
2022-08-05T21:28:47.930Z,5.30
2022-08-05T21:31:19.882Z,1.87
2022-08-05T21:33:49.403Z,5.63
2022-08-05T21:36:27.475Z,2.80
2022-08-05T21:38:56.518Z,6.33
2022-08-05T21:41:25.905Z,2.70
2022-08-05T21:44:04.417Z,2.27
2022-08-05T21:46:34.550Z,1.70
2022-08-05T21:49:04.581Z,1.00
2022-08-05T21:52:21.394Z,2.80
2022-08-05T21:54:27.895Z,4.87
2022-08-05T21:57:28.461Z,1.90
2022-08-05T22:00:03.962Z,2.07
2022-08-05T22:02:41.623Z,4.57
2022-08-05T22:05:11.717Z,1.53
2022-08-05T22:07:58.436Z,5.77
2022-08-05T22:10:28.681Z,6.07
2022-08-05T22:12:59.058Z,2.70
2022-08-05T22:16:01.499Z,4.53
2022-08-05T22:18:18.815Z,3.33
2022-08-05T22:20:48.138Z,4.20
2022-08-05T22:24:02.403Z,5.23
2022-08-05T22:26:49.895Z,3.37
2022-08-05T22:29:26.738Z,4.70
2022-08-05T22:32:02.674Z,5.80
2022-08-05T22:34:32.492Z,3.20
2022-08-05T22:37:01.095Z,14.37
2022-08-05T22:39:34.379Z,3.17
2022-08-05T22:42:11.591Z,3.43
2022-08-05T22:44:56.337Z,4.53
2022-08-05T22:47:28.954Z,3.13
2022-08-05T22:50:21.634Z,6.53
2022-08-05T22:52:48.546Z,4.40
2022-08-05T22:55:19.314Z,2.77
2022-08-05T22:57:49.423Z,5.93
2022-08-05T23:00:20.845Z,4.37
2022-08-05T23:02:53.241Z,3.27
2022-08-05T23:05:22.892Z,8.07
2022-08-05T23:07:51.868Z,9.70
2022-08-05T23:10:23.658Z,3.90
2022-08-05T23:12:54.533Z,5.30
2022-08-05T23:15:28.920Z,5.10
2022-08-05T23:18:03.240Z,3.73
2022-08-05T23:20:33.127Z,7.83
2022-08-05T23:23:03.483Z,3.97
2022-08-05T23:25:52.763Z,2.30
2022-08-05T23:28:29.156Z,6.03
2022-08-05T23:31:16.656Z,8.40
2022-08-05T23:34:03.880Z,4.30
2022-08-05T23:36:40.078Z,5.83
2022-08-05T23:39:17.138Z,8.37
2022-08-05T23:41:52.046Z,8.93
2022-08-05T23:44:25.142Z,3.93
2022-08-05T23:47:02.510Z,5.17
2022-08-05T23:49:46.733Z,5.07
2022-08-05T23:52:29.012Z,3.23
2022-08-05T23:55:02.612Z,3.90
2022-08-05T23:57:34.096Z,2.67
